Time;durP1;ratioP1;P1;durP2;ratioP2;P2;SDS_P1;SDS_P2;PMS_P1;PMS_P2;Temp;Humidity;BMP_temperature;BMP_pressure;BME280_temperature;BME280_humidity;BME280_pressure;Samples;Min_cycle;Max_cycle;Signal;HPM_P1;HPM_P2
2021/04/22 00:00:02;;;;;;;27.63;11.80;;;11.60;99.90;;;;;;5043218;28;20048;-66
2021/04/22 00:02:29;;;;;;;19.23;10.88;;;11.60;99.90;;;;;;5041759;28;21365;-66
2021/04/22 00:04:55;;;;;;;20.23;12.02;;;11.60;99.90;;;;;;5041395;28;20044;-66
2021/04/22 00:07:23;;;;;;;21.60;11.95;;;11.60;99.90;;;;;;5041199;28;20547;-66
2021/04/22 00:09:50;;;;;;;19.88;12.48;;;11.60;99.90;;;;;;5043465;28;20056;-66
2021/04/22 00:12:17;;;;;;;22.08;12.73;;;11.40;99.90;;;;;;5041734;28;20064;-66
2021/04/22 00:14:44;;;;;;;21.17;12.50;;;11.50;99.90;;;;;;5042667;28;20052;-66
2021/04/22 00:17:12;;;;;;;20.85;12.52;;;11.50;99.90;;;;;;5042808;28;20086;-66
2021/04/22 00:19:40;;;;;;;19.55;11.95;;;11.50;99.90;;;;;;5045019;28;20049;-66
2021/04/22 00:22:07;;;;;;;17.85;11.25;;;11.40;99.90;;;;;;5037780;28;20048;-66
2021/04/22 00:24:34;;;;;;;22.85;12.13;;;11.50;99.90;;;;;;5039557;28;20052;-67
2021/04/22 00:27:01;;;;;;;19.30;11.15;;;11.50;99.90;;;;;;5039236;28;20059;-67
2021/04/22 00:29:27;;;;;;;20.10;11.77;;;11.40;99.90;;;;;;5043507;28;20056;-67
2021/04/22 00:31:54;;;;;;;20.25;11.43;;;11.50;99.90;;;;;;5041689;28;20056;-67
2021/04/22 00:34:21;;;;;;;19.25;12.27;;;11.40;99.90;;;;;;5041146;28;20063;-66
2021/04/22 00:36:47;;;;;;;19.75;12.52;;;11.30;99.90;;;;;;5039276;28;20040;-67
2021/04/22 00:39:14;;;;;;;21.92;12.48;;;11.40;99.90;;;;;;5038326;28;20053;-66
2021/04/22 00:41:42;;;;;;;18.75;11.05;;;11.50;99.90;;;;;;5040605;28;20057;-66
2021/04/22 00:44:10;;;;;;;17.75;10.52;;;11.50;99.90;;;;;;5041891;28;20505;-66
2021/04/22 00:46:38;;;;;;;20.42;11.93;;;11.30;99.90;;;;;;5041393;28;20497;-67
2021/04/22 00:49:06;;;;;;;17.73;10.38;;;11.30;99.90;;;;;;5039592;28;21157;-66
2021/04/22 00:51:33;;;;;;;18.70;11.27;;;11.40;99.90;;;;;;5041051;28;20052;-66
2021/04/22 00:54:00;;;;;;;21.27;10.85;;;11.30;99.90;;;;;;5042366;28;20045;-67
2021/04/22 00:56:26;;;;;;;19.85;10.25;;;11.30;99.90;;;;;;5041788;28;20056;-66
2021/04/22 00:58:54;;;;;;;21.33;11.07;;;11.30;99.90;;;;;;5040381;28;20052;-67
2021/04/22 01:01:20;;;;;;;19.80;10.77;;;11.30;99.90;;;;;;5041429;28;20516;-67
2021/04/22 01:03:47;;;;;;;21.77;10.95;;;11.20;99.90;;;;;;5043749;28;20505;-66
2021/04/22 01:06:14;;;;;;;19.05;10.52;;;11.30;99.90;;;;;;5040520;28;20047;-66
2021/04/22 01:08:40;;;;;;;22.83;9.35;;;11.20;99.90;;;;;;5043779;28;20445;-66
2021/04/22 01:11:07;;;;;;;18.70;10.30;;;11.30;99.90;;;;;;5039634;28;20452;-66
2021/04/22 01:13:34;;;;;;;21.40;10.40;;;11.10;99.90;;;;;;5043530;28;20059;-67
2021/04/22 01:16:01;;;;;;;17.02;9.95;;;11.10;99.90;;;;;;5038824;28;20044;-67
2021/04/22 01:18:28;;;;;;;19.15;10.60;;;11.20;99.90;;;;;;5043810;28;20055;-66
2021/04/22 01:20:55;;;;;;;20.40;10.60;;;11.20;99.90;;;;;;5042103;28;20060;-66
2021/04/22 01:23:22;;;;;;;22.10;10.18;;;11.10;99.90;;;;;;5042019;28;20056;-66
2021/04/22 01:25:52;;;;;;;27.08;12.25;;;11.00;99.90;;;;;;5043199;28;20048;-66
2021/04/22 01:28:21;;;;;;;19.20;11.07;;;11.10;99.90;;;;;;5041760;28;20163;-66
2021/04/22 01:30:49;;;;;;;20.35;11.48;;;11.00;99.90;;;;;;5045472;28;20154;-66
2021/04/22 01:33:19;;;;;;;21.75;11.38;;;10.80;99.90;;;;;;5039216;28;20051;-66
2021/04/22 01:35:49;;;;;;;20.40;10.73;;;10.70;99.90;;;;;;5041892;28;20056;-67
2021/04/22 01:38:16;;;;;;;23.75;10.57;;;10.60;99.90;;;;;;5044228;28;20052;-66
2021/04/22 01:40:43;;;;;;;20.90;10.07;;;10.60;99.90;;;;;;5044442;28;20051;-66
2021/04/22 01:43:10;;;;;;;19.95;10.52;;;10.50;99.90;;;;;;5041965;28;20102;-66
2021/04/22 01:45:38;;;;;;;21.98;10.93;;;10.50;99.90;;;;;;5042393;28;20086;-66
2021/04/22 01:48:06;;;;;;;19.33;10.23;;;10.40;99.90;;;;;;5040643;28;20493;-66
2021/04/22 01:50:35;;;;;;;22.30;9.50;;;10.40;99.90;;;;;;5042001;28;20096;-66
2021/04/22 01:53:02;;;;;;;24.15;11.43;;;10.40;99.90;;;;;;5042975;28;20083;-66
2021/04/22 01:55:31;;;;;;;22.50;10.32;;;10.40;99.90;;;;;;5041646;28;20526;-66
2021/04/22 01:57:59;;;;;;;18.98;9.75;;;10.40;99.90;;;;;;5041155;28;20087;-66
2021/04/22 02:00:31;;;;;;;25.52;11.38;;;10.40;99.90;;;;;;5043541;28;20408;-66
2021/04/22 02:02:58;;;;;;;19.02;10.52;;;10.50;99.90;;;;;;5043865;28;20048;-66
2021/04/22 02:05:25;;;;;;;22.50;10.25;;;10.50;99.90;;;;;;5043251;28;20055;-67
2021/04/22 02:07:52;;;;;;;23.65;10.10;;;10.40;99.90;;;;;;5040641;28;20175;-67
2021/04/22 02:10:19;;;;;;;22.83;10.30;;;10.40;99.90;;;;;;5041307;28;20398;-67
2021/04/22 02:12:46;;;;;;;21.80;10.65;;;10.30;99.90;;;;;;5044825;28;20458;-66
2021/04/22 02:15:18;;;;;;;17.30;8.77;;;10.30;99.90;;;;;;5043271;28;20060;-66
2021/04/22 02:17:45;;;;;;;21.38;10.52;;;10.30;99.90;;;;;;5039850;28;20066;-66
2021/04/22 02:20:14;;;;;;;21.35;9.38;;;10.30;99.90;;;;;;5042424;28;20061;-66
2021/04/22 02:22:41;;;;;;;18.73;9.23;;;10.30;99.90;;;;;;5042189;28;20236;-66
2021/04/22 02:25:12;;;;;;;20.60;9.40;;;10.30;99.90;;;;;;5045926;28;20515;-67
2021/04/22 02:27:40;;;;;;;23.38;9.80;;;10.20;99.90;;;;;;5046254;28;20053;-66
2021/04/22 02:30:10;;;;;;;21.83;9.15;;;10.30;99.90;;;;;;5044328;28;20051;-66
2021/04/22 02:32:38;;;;;;;20.25;8.90;;;10.20;99.90;;;;;;5047363;28;20052;-66
2021/04/22 02:35:05;;;;;;;23.77;8.60;;;10.10;99.90;;;;;;5047540;28;20868;-66
2021/04/22 02:37:32;;;;;;;18.58;7.85;;;10.10;99.90;;;;;;5046229;28;21391;-66
2021/04/22 02:39:59;;;;;;;15.73;7.57;;;10.10;99.90;;;;;;5046973;28;21107;-67
2021/04/22 02:42:25;;;;;;;18.17;7.18;;;10.00;99.90;;;;;;5049633;28;20050;-66
2021/04/22 02:44:52;;;;;;;20.58;7.22;;;9.90;99.90;;;;;;5048808;28;20048;-66
2021/04/22 02:47:19;;;;;;;19.48;7.70;;;9.90;99.90;;;;;;5044239;28;20064;-67
2021/04/22 02:49:46;;;;;;;21.05;7.07;;;9.90;99.90;;;;;;5048336;28;20044;-66
2021/04/22 02:52:13;;;;;;;16.15;6.28;;;9.90;99.90;;;;;;5044294;28;20052;-67
2021/04/22 02:54:40;;;;;;;23.17;7.15;;;9.80;99.90;;;;;;5047228;28;20470;-67
2021/04/22 02:57:07;;;;;;;19.15;6.32;;;9.80;99.90;;;;;;5045835;28;20060;-67
2021/04/22 02:59:33;;;;;;;17.30;6.95;;;9.60;99.90;;;;;;5045493;28;20085;-67
2021/04/22 03:02:00;;;;;;;18.48;6.72;;;9.50;99.90;;;;;;5047878;28;20056;-67
2021/04/22 03:04:26;;;;;;;21.23;7.15;;;9.50;99.90;;;;;;5045647;28;20114;-66
2021/04/22 03:06:54;;;;;;;20.30;7.72;;;9.40;99.90;;;;;;5046681;28;20056;-67
2021/04/22 03:09:21;;;;;;;16.95;6.13;;;9.30;99.90;;;;;;5046883;28;20053;-67
2021/04/22 03:11:47;;;;;;;15.57;6.38;;;9.30;99.90;;;;;;5047077;28;20420;-67
2021/04/22 03:14:14;;;;;;;16.95;6.25;;;9.20;99.90;;;;;;5040986;28;20053;-67
2021/04/22 03:16:41;;;;;;;13.38;5.53;;;9.20;99.90;;;;;;5043755;28;20063;-67
2021/04/22 03:19:07;;;;;;;16.52;5.60;;;9.20;99.90;;;;;;5045519;28;20056;-67
2021/04/22 03:21:34;;;;;;;18.52;6.53;;;9.20;99.90;;;;;;5046525;28;20692;-67
2021/04/22 03:24:02;;;;;;;16.05;6.03;;;9.00;99.90;;;;;;5048040;28;20779;-67
2021/04/22 03:26:28;;;;;;;14.88;5.75;;;9.00;99.90;;;;;;5045344;28;20082;-67
2021/04/22 03:28:55;;;;;;;18.48;5.78;;;8.90;99.90;;;;;;5042821;28;20094;-67
2021/04/22 03:31:22;;;;;;;17.45;5.65;;;9.00;99.90;;;;;;5046006;28;20608;-67
2021/04/22 03:33:48;;;;;;;14.52;5.00;;;8.90;99.90;;;;;;5046257;28;20056;-67
2021/04/22 03:36:15;;;;;;;21.42;5.20;;;8.80;99.90;;;;;;5045302;28;20044;-67
2021/04/22 03:38:42;;;;;;;15.70;4.78;;;8.80;99.90;;;;;;5044283;28;20499;-67
2021/04/22 03:41:09;;;;;;;12.38;3.90;;;8.70;99.90;;;;;;5043987;28;20048;-67
2021/04/22 03:43:36;;;;;;;10.38;3.90;;;8.60;99.90;;;;;;5045180;28;20056;-67
2021/04/22 03:46:03;;;;;;;12.27;4.13;;;8.50;99.90;;;;;;5042863;28;20527;-67
2021/04/22 03:48:29;;;;;;;11.45;4.68;;;8.40;99.90;;;;;;5046781;28;20060;-67
2021/04/22 03:50:56;;;;;;;14.25;3.95;;;8.30;99.90;;;;;;5044823;28;20471;-67
2021/04/22 03:53:23;;;;;;;14.75;4.68;;;8.10;99.90;;;;;;5043528;28;20145;-67
2021/04/22 03:55:50;;;;;;;15.40;4.70;;;8.20;99.90;;;;;;5042306;28;20443;-67
2021/04/22 03:58:18;;;;;;;13.07;3.80;;;8.00;99.90;;;;;;5037611;28;20123;-67
2021/04/22 04:00:45;;;;;;;14.07;4.85;;;8.10;99.90;;;;;;5046615;28;20509;-67
2021/04/22 04:03:11;;;;;;;12.85;4.07;;;7.90;99.90;;;;;;5045085;28;20083;-67
2021/04/22 04:05:38;;;;;;;12.40;3.90;;;7.80;99.90;;;;;;5045690;28;20519;-67
2021/04/22 04:08:05;;;;;;;16.20;4.10;;;7.80;99.90;;;;;;5046922;28;20159;-67
2021/04/22 04:10:32;;;;;;;18.15;4.40;;;7.70;99.90;;;;;;5046044;28;20052;-67
2021/04/22 04:12:59;;;;;;;12.07;3.90;;;7.70;99.90;;;;;;5048091;28;20058;-67
2021/04/22 04:15:26;;;;;;;12.07;3.72;;;7.70;99.90;;;;;;5043538;28;20056;-67
2021/04/22 04:17:53;;;;;;;12.88;3.28;;;7.70;99.90;;;;;;5044583;28;20052;-67
2021/04/22 04:20:19;;;;;;;13.63;4.27;;;7.70;99.90;;;;;;5045353;28;20052;-67
2021/04/22 04:22:47;;;;;;;11.70;4.57;;;7.60;99.90;;;;;;5046879;28;20059;-67
2021/04/22 04:25:15;;;;;;;11.60;3.77;;;7.50;99.90;;;;;;5043187;28;20056;-66
2021/04/22 04:27:42;;;;;;;18.23;3.87;;;7.50;99.90;;;;;;5044438;28;20575;-67
2021/04/22 04:30:12;;;;;;;11.97;3.60;;;7.40;99.90;;;;;;5047477;28;20455;-67
2021/04/22 04:32:40;;;;;;;12.27;3.40;;;7.40;99.90;;;;;;5047819;28;20543;-67
2021/04/22 04:35:08;;;;;;;10.33;4.30;;;7.30;99.90;;;;;;5044296;28;20048;-67
2021/04/22 04:37:35;;;;;;;10.27;3.67;;;7.30;99.90;;;;;;5042428;28;20052;-67
2021/04/22 04:40:02;;;;;;;14.63;4.10;;;7.30;99.90;;;;;;5047679;28;20126;-66
2021/04/22 04:42:28;;;;;;;13.07;4.20;;;7.30;99.90;;;;;;5047117;28;20532;-67
2021/04/22 04:44:55;;;;;;;10.00;3.47;;;7.40;99.90;;;;;;5043547;28;20055;-67
2021/04/22 04:47:21;;;;;;;14.57;3.60;;;7.40;99.90;;;;;;5044108;28;20052;-67
2021/04/22 04:49:49;;;;;;;11.23;3.50;;;7.40;99.90;;;;;;5047853;28;20048;-66
2021/04/22 04:52:16;;;;;;;12.33;4.10;;;7.30;99.90;;;;;;5043317;28;20157;-66
2021/04/22 04:54:42;;;;;;;14.80;4.57;;;7.30;99.90;;;;;;5043168;28;20405;-66
2021/04/22 04:57:10;;;;;;;13.67;3.80;;;7.30;99.90;;;;;;5044046;28;20121;-66
2021/04/22 04:59:37;;;;;;;19.37;4.40;;;7.30;99.90;;;;;;5043533;28;20052;-66
2021/04/22 05:02:04;;;;;;;12.97;3.70;;;7.30;99.90;;;;;;5045063;28;20048;-66
2021/04/22 05:04:30;;;;;;;17.43;3.77;;;7.20;99.90;;;;;;5046267;28;20055;-67
2021/04/22 05:06:58;;;;;;;10.03;3.33;;;7.10;99.90;;;;;;5041804;28;20101;-67
2021/04/22 05:09:24;;;;;;;9.80;4.20;;;7.10;99.90;;;;;;5045191;28;20053;-67
2021/04/22 05:11:51;;;;;;;10.87;3.47;;;7.10;99.90;;;;;;5047390;28;20052;-67
2021/04/22 05:14:18;;;;;;;14.43;3.00;;;7.00;99.90;;;;;;5054979;28;20496;-67
2021/04/22 05:16:44;;;;;;;14.57;2.50;;;7.10;99.90;;;;;;5054097;28;20406;-66
2021/04/22 05:19:11;;;;;;;9.53;3.07;;;7.10;99.90;;;;;;5053642;28;20048;-66
2021/04/22 05:21:38;;;;;;;10.80;2.77;;;7.20;99.90;;;;;;5051523;28;20463;-67
2021/04/22 05:24:09;;;;;;;13.47;2.57;;;7.20;99.90;;;;;;5052319;28;20048;-65
2021/04/22 05:26:36;;;;;;;11.70;2.63;;;7.30;99.90;;;;;;5043164;28;20060;-66
2021/04/22 05:29:03;;;;;;;11.23;3.60;;;7.20;99.90;;;;;;5038696;28;20483;-66
2021/04/22 05:31:30;;;;;;;9.73;2.40;;;7.30;99.90;;;;;;5042951;28;20053;-65
2021/04/22 05:33:57;;;;;;;10.77;2.57;;;7.20;99.90;;;;;;5044206;28;20582;-67
2021/04/22 05:36:23;;;;;;;14.60;2.70;;;7.20;99.90;;;;;;5043793;28;20060;-68
2021/04/22 05:38:50;;;;;;;12.47;2.50;;;7.20;99.90;;;;;;5042189;28;20052;-67
2021/04/22 05:41:18;;;;;;;12.50;3.10;;;7.20;99.90;;;;;;5044500;28;20071;-66
2021/04/22 05:43:44;;;;;;;6.83;2.57;;;7.20;99.90;;;;;;5042535;28;20488;-65
2021/04/22 05:46:11;;;;;;;11.80;3.07;;;7.20;99.90;;;;;;5044624;28;20386;-65
2021/04/22 05:48:38;;;;;;;12.50;2.80;;;7.20;99.90;;;;;;5039479;28;20094;-66
2021/04/22 05:51:05;;;;;;;12.53;2.90;;;7.20;99.90;;;;;;5047513;28;20056;-66
2021/04/22 05:53:31;;;;;;;12.83;2.30;;;7.40;99.90;;;;;;5053016;28;21029;-66
2021/04/22 05:55:58;;;;;;;10.00;2.77;;;7.30;99.90;;;;;;5047689;28;20060;-66
2021/04/22 05:58:29;;;;;;;10.67;2.03;;;7.40;99.90;;;;;;5049479;28;20105;-68
2021/04/22 06:00:56;;;;;;;11.17;1.90;;;7.40;99.90;;;;;;5053925;28;20058;-68
2021/04/22 06:03:22;;;;;;;13.33;2.53;;;7.30;99.90;;;;;;5053222;28;20059;-68
2021/04/22 06:05:49;;;;;;;15.47;2.77;;;7.40;99.90;;;;;;5053677;28;20094;-68
2021/04/22 06:08:16;;;;;;;10.03;1.90;;;7.40;99.90;;;;;;5052961;28;21392;-70
2021/04/22 06:10:42;;;;;;;13.27;2.23;;;7.30;99.90;;;;;;5053746;28;20082;-70
2021/04/22 06:13:12;;;;;;;11.73;2.47;;;7.30;99.90;;;;;;5053091;28;20053;-69
2021/04/22 06:15:40;;;;;;;13.90;2.67;;;7.20;99.90;;;;;;5050654;28;20049;-67
2021/04/22 06:18:08;;;;;;;12.83;2.63;;;7.20;99.90;;;;;;5052930;28;20048;-67
2021/04/22 06:20:34;;;;;;;10.20;1.97;;;7.30;99.90;;;;;;5048071;28;20705;-67
2021/04/22 06:23:01;;;;;;;16.90;3.00;;;7.40;99.90;;;;;;5049762;28;20055;-67
2021/04/22 06:25:28;;;;;;;18.50;2.37;;;7.40;99.90;;;;;;5049045;28;20048;-66
2021/04/22 06:27:56;;;;;;;14.93;3.80;;;7.40;99.90;;;;;;5046783;28;20054;-66
2021/04/22 06:30:24;;;;;;;15.73;2.60;;;7.40;99.90;;;;;;5043249;28;20082;-66
2021/04/22 06:32:51;;;;;;;9.30;2.07;;;7.50;99.90;;;;;;5050678;28;20052;-67
2021/04/22 06:35:18;;;;;;;14.50;2.37;;;7.50;99.90;;;;;;5045512;28;20058;-66
2021/04/22 06:37:45;;;;;;;12.00;2.50;;;7.70;99.90;;;;;;5045343;28;20044;-67
2021/04/22 06:40:16;;;;;;;13.07;2.57;;;7.80;99.90;;;;;;5044789;28;20052;-68
2021/04/22 06:42:44;;;;;;;9.98;2.42;;;7.80;99.90;;;;;;5047304;28;20097;-66
2021/04/22 06:45:13;;;;;;;12.37;2.23;;;7.90;99.90;;;;;;5047880;28;20048;-66
2021/04/22 06:47:40;;;;;;;9.85;2.58;;;8.10;99.90;;;;;;5045831;28;20048;-67
2021/04/22 06:50:11;;;;;;;11.23;2.22;;;8.20;99.90;;;;;;5043833;28;20053;-66
2021/04/22 06:52:38;;;;;;;17.73;2.88;;;8.20;99.90;;;;;;5048866;28;20052;-66
2021/04/22 06:55:17;;;;;;;13.65;3.13;;;8.20;99.90;;;;;;5046131;28;20057;-67
2021/04/22 06:57:45;;;;;;;9.18;2.40;;;8.40;99.90;;;;;;5046622;28;20060;-66
2021/04/22 07:00:14;;;;;;;15.93;2.70;;;8.40;99.90;;;;;;5051958;28;20056;-66
2021/04/22 07:02:41;;;;;;;13.60;3.13;;;8.50;99.90;;;;;;5052312;28;20064;-67
2021/04/22 07:05:10;;;;;;;15.68;2.88;;;8.50;99.90;;;;;;5050823;28;20052;-67
2021/04/22 07:07:37;;;;;;;15.07;2.40;;;8.60;99.90;;;;;;5048816;28;20496;-67
2021/04/22 07:10:05;;;;;;;15.45;3.17;;;8.60;99.90;;;;;;5047919;28;20056;-67
2021/04/22 07:12:32;;;;;;;15.63;2.60;;;8.50;99.90;;;;;;5051304;28;20060;-66
2021/04/22 07:14:59;;;;;;;15.77;3.22;;;8.60;99.90;;;;;;5049470;28;20056;-66
2021/04/22 07:17:26;;;;;;;14.32;2.35;;;8.50;99.90;;;;;;5048529;28;20086;-66
2021/04/22 07:19:54;;;;;;;18.80;2.97;;;8.60;99.90;;;;;;5047368;28;20761;-66
2021/04/22 07:22:22;;;;;;;14.45;2.90;;;8.70;99.90;;;;;;5052312;28;20139;-67
2021/04/22 07:24:49;;;;;;;24.05;5.25;;;8.90;99.90;;;;;;5049884;28;20056;-67
2021/04/22 07:27:15;;;;;;;14.68;2.88;;;8.90;99.90;;;;;;5044059;28;20060;-66
2021/04/22 07:29:45;;;;;;;12.20;2.53;;;9.00;99.90;;;;;;5045446;28;20083;-66
2021/04/22 07:32:12;;;;;;;14.20;2.78;;;9.00;99.90;;;;;;5048930;28;20548;-66
2021/04/22 07:34:39;;;;;;;20.52;4.55;;;9.10;99.90;;;;;;5049518;28;20044;-66
2021/04/22 07:37:06;;;;;;;12.88;3.22;;;9.20;99.90;;;;;;5047850;28;20056;-66
2021/04/22 07:39:34;;;;;;;14.15;3.50;;;9.40;99.90;;;;;;5053852;28;20055;-66
2021/04/22 07:42:01;;;;;;;18.95;3.80;;;9.30;99.90;;;;;;5051200;28;20416;-67
2021/04/22 07:44:28;;;;;;;13.35;2.97;;;9.40;99.90;;;;;;5052905;28;20078;-66
2021/04/22 07:46:54;;;;;;;15.77;3.00;;;9.30;99.90;;;;;;5051236;28;20080;-67
2021/04/22 07:49:21;;;;;;;14.82;3.10;;;9.40;99.90;;;;;;5051636;28;20122;-67
2021/04/22 07:51:48;;;;;;;15.02;3.95;;;9.50;99.90;;;;;;5048633;28;20417;-67
2021/04/22 07:54:14;;;;;;;14.50;2.60;;;9.60;99.90;;;;;;5049781;28;20993;-67
2021/04/22 07:56:42;;;;;;;11.65;2.45;;;9.80;99.90;;;;;;5052590;28;20060;-67
2021/04/22 07:59:09;;;;;;;17.10;3.30;;;9.90;99.90;;;;;;5051049;28;20098;-68
2021/04/22 08:01:35;;;;;;;19.10;3.08;;;9.80;99.90;;;;;;5042736;28;20067;-67
2021/04/22 08:04:04;;;;;;;16.92;2.92;;;10.00;99.90;;;;;;5044940;28;20420;-67
2021/04/22 08:06:31;;;;;;;11.18;3.08;;;10.20;99.90;;;;;;5045587;28;20067;-66
2021/04/22 08:08:57;;;;;;;15.02;3.20;;;10.20;99.90;;;;;;5044850;28;20052;-67
2021/04/22 08:11:24;;;;;;;11.77;3.17;;;10.10;99.90;;;;;;5045684;28;20059;-67
2021/04/22 08:13:52;;;;;;;11.43;3.17;;;10.30;99.90;;;;;;5043698;28;20056;-67
2021/04/22 08:16:18;;;;;;;11.82;3.33;;;10.40;99.90;;;;;;5043301;28;20060;-66
2021/04/22 08:18:45;;;;;;;16.52;3.85;;;10.40;99.90;;;;;;5043459;28;20048;-67
2021/04/22 08:21:12;;;;;;;18.42;4.85;;;10.20;99.90;;;;;;5046781;28;20414;-67
2021/04/22 08:23:38;;;;;;;16.92;3.90;;;10.60;99.90;;;;;;5045065;28;20063;-67
2021/04/22 08:26:08;;;;;;;13.25;3.75;;;11.10;99.90;;;;;;5050931;28;20076;-67
2021/04/22 08:28:35;;;;;;;11.73;3.60;;;11.40;99.90;;;;;;5049583;28;20087;-67
2021/04/22 08:31:08;;;;;;;16.73;3.65;;;11.70;99.90;;;;;;5044385;28;20051;-67
2021/04/22 08:33:36;;;;;;;13.10;3.90;;;12.00;99.90;;;;;;5046058;28;20548;-67
2021/04/22 08:36:04;;;;;;;13.13;3.65;;;12.50;98.80;;;;;;5045203;28;20161;-67
2021/04/22 08:38:31;;;;;;;11.27;4.10;;;13.00;96.60;;;;;;5046088;28;20047;-67
2021/04/22 08:40:58;;;;;;;17.33;3.85;;;14.10;94.80;;;;;;5043619;28;20048;-67
2021/04/22 08:43:25;;;;;;;14.25;3.75;;;14.70;92.40;;;;;;5042571;28;20064;-67
2021/04/22 08:45:52;;;;;;;16.65;4.35;;;15.70;89.70;;;;;;5044933;28;20040;-67
2021/04/22 08:48:20;;;;;;;13.60;3.95;;;16.40;83.30;;;;;;5042877;28;20085;-69
2021/04/22 08:50:50;;;;;;;13.18;4.38;;;17.20;78.20;;;;;;5042575;28;20358;-68
2021/04/22 08:53:20;;;;;;;11.45;3.42;;;17.80;74.20;;;;;;5051889;28;20053;-68
2021/04/22 08:55:47;;;;;;;18.73;4.45;;;18.10;69.60;;;;;;5043342;28;20376;-69
2021/04/22 08:58:15;;;;;;;15.57;4.35;;;18.80;64.70;;;;;;5043158;28;20148;-68
2021/04/22 09:00:45;;;;;;;14.10;3.78;;;19.00;62.40;;;;;;5042460;28;20056;-68
2021/04/22 09:03:12;;;;;;;15.85;4.38;;;19.20;59.60;;;;;;5045003;28;20056;-68
2021/04/22 09:05:40;;;;;;;10.88;3.42;;;19.40;58.20;;;;;;5044721;28;20105;-68
2021/04/22 09:08:07;;;;;;;14.40;3.10;;;19.30;56.50;;;;;;5043248;28;20070;-68
2021/04/22 09:10:34;;;;;;;15.20;4.32;;;19.40;56.50;;;;;;5045347;28;20059;-68
2021/04/22 09:13:04;;;;;;;13.23;3.78;;;19.70;55.00;;;;;;5041549;28;20109;-68
2021/04/22 09:15:32;;;;;;;13.40;4.00;;;19.50;53.90;;;;;;5048085;28;20068;-68
2021/04/22 09:18:01;;;;;;;15.98;3.92;;;19.10;53.40;;;;;;5052187;28;20095;-68
2021/04/22 09:20:31;;;;;;;13.85;3.90;;;19.40;54.60;;;;;;5049710;28;20066;-68
2021/04/22 09:23:00;;;;;;;11.65;3.58;;;19.50;53.60;;;;;;5048079;28;20456;-68
2021/04/22 09:25:28;;;;;;;15.20;3.58;;;19.80;52.90;;;;;;5052045;28;20517;-68
2021/04/22 09:28:06;;;;;;;13.20;3.50;;;20.20;52.30;;;;;;5047933;28;20063;-68
2021/04/22 09:30:37;;;;;;;14.75;4.03;;;20.70;52.20;;;;;;5051476;28;20790;-68
2021/04/22 09:33:04;;;;;;;12.95;3.75;;;21.30;50.50;;;;;;5048349;28;20048;-69
2021/04/22 09:35:31;;;;;;;18.20;4.03;;;21.40;50.70;;;;;;5051862;28;20056;-69
2021/04/22 09:37:59;;;;;;;21.45;3.97;;;21.60;49.90;;;;;;5046738;28;20056;-68
2021/04/22 09:40:29;;;;;;;10.88;3.25;;;20.90;49.60;;;;;;5048866;28;20137;-68
2021/04/22 09:42:59;;;;;;;14.55;3.90;;;20.80;50.10;;;;;;5047505;28;21298;-68
2021/04/22 09:45:27;;;;;;;16.27;4.15;;;20.40;49.80;;;;;;5047785;28;20142;-68
2021/04/22 09:47:55;;;;;;;11.93;3.80;;;20.80;50.20;;;;;;5047079;28;20460;-68
2021/04/22 09:50:25;;;;;;;17.13;3.65;;;21.10;50.50;;;;;;5052705;28;20060;-69
2021/04/22 09:52:55;;;;;;;11.98;3.38;;;21.20;50.40;;;;;;5050567;28;20060;-68
2021/04/22 09:55:25;;;;;;;16.85;3.67;;;21.60;49.00;;;;;;5053829;28;20052;-69
2021/04/22 09:57:52;;;;;;;12.27;3.58;;;22.20;47.80;;;;;;5052700;28;20090;-69
2021/04/22 10:00:23;;;;;;;11.45;3.25;;;22.30;47.20;;;;;;5047976;28;20048;-69
2021/04/22 10:02:53;;;;;;;11.50;3.97;;;22.30;47.40;;;;;;5052489;28;20048;-69
2021/04/22 10:05:23;;;;;;;11.93;3.22;;;22.80;46.40;;;;;;5047482;28;20052;-69
2021/04/22 10:07:51;;;;;;;12.65;3.28;;;23.30;45.70;;;;;;5048295;28;20060;-69
2021/04/22 10:10:21;;;;;;;16.92;3.20;;;23.20;46.50;;;;;;5052451;28;21156;-69
2021/04/22 10:12:49;;;;;;;18.30;4.50;;;23.80;45.70;;;;;;5054079;28;20132;-69
2021/04/22 10:15:18;;;;;;;12.57;3.88;;;23.70;45.00;;;;;;5053803;28;20516;-69
2021/04/22 10:17:53;;;;;;;12.10;3.55;;;23.20;45.00;;;;;;5050656;28;20088;-69
2021/04/22 10:20:20;;;;;;;11.00;3.40;;;23.60;44.50;;;;;;5045984;28;20476;-69
2021/04/22 10:22:49;;;;;;;15.70;4.38;;;23.70;44.80;;;;;;5045202;28;20109;-69
2021/04/22 10:25:19;;;;;;;14.43;4.57;;;23.70;44.20;;;;;;5042396;28;20048;-69
2021/04/22 10:27:46;;;;;;;9.52;3.20;;;24.50;43.60;;;;;;5041836;28;20051;-69
2021/04/22 10:30:16;;;;;;;10.73;3.13;;;24.70;44.10;;;;;;5046421;28;20051;-67
2021/04/22 10:32:44;;;;;;;10.32;3.55;;;24.70;42.40;;;;;;5042209;28;20052;-67
2021/04/22 10:35:13;;;;;;;13.60;3.85;;;24.80;42.60;;;;;;5040273;28;20160;-67
2021/04/22 10:37:41;;;;;;;14.10;4.32;;;24.30;43.00;;;;;;5041259;28;20139;-67
2021/04/22 10:40:09;;;;;;;16.15;3.75;;;21.40;43.10;;;;;;5043889;28;20500;-67
2021/04/22 10:42:37;;;;;;;9.82;2.92;;;21.80;43.20;;;;;;5043637;28;20102;-67
2021/04/22 10:45:08;;;;;;;13.52;3.25;;;22.10;44.30;;;;;;5047174;28;20159;-68
2021/04/22 10:47:36;;;;;;;13.73;3.33;;;23.00;43.30;;;;;;5044208;28;20400;-67
2021/04/22 10:50:04;;;;;;;14.15;3.85;;;22.70;42.80;;;;;;5041536;28;20059;-67
2021/04/22 10:52:32;;;;;;;8.90;3.13;;;23.10;42.50;;;;;;5046148;28;20129;-67
2021/04/22 10:54:58;;;;;;;8.95;3.45;;;23.20;41.90;;;;;;5045247;28;20059;-67
2021/04/22 10:57:31;;;;;;;9.07;3.33;;;23.10;41.70;;;;;;5044152;28;20083;-67
2021/04/22 11:00:04;;;;;;;10.43;2.97;;;23.00;41.50;;;;;;5045076;28;20810;-68
2021/04/22 11:02:43;;;;;;;17.20;4.38;;;22.60;40.70;;;;;;5040416;28;20059;-67
2021/04/22 11:05:21;;;;;;;13.45;3.30;;;22.10;43.00;;;;;;5044248;28;20052;-68
2021/04/22 11:08:04;;;;;;;9.95;2.83;;;22.80;42.60;;;;;;5043688;28;20109;-67
2021/04/22 11:10:37;;;;;;;13.60;3.40;;;22.50;41.20;;;;;;5047264;28;20060;-67
2021/04/22 11:13:12;;;;;;;11.88;3.30;;;21.90;39.90;;;;;;5043119;28;20494;-68
2021/04/22 11:15:39;;;;;;;9.80;3.03;;;22.00;39.80;;;;;;5047266;28;20186;-67
2021/04/22 11:18:11;;;;;;;13.25;2.55;;;22.50;41.30;;;;;;5042790;28;20048;-68
2021/04/22 11:20:40;;;;;;;9.00;2.78;;;22.20;39.70;;;;;;5043027;28;20135;-67
2021/04/22 11:23:17;;;;;;;10.32;3.03;;;22.00;39.40;;;;;;5037022;28;20086;-67
2021/04/22 11:25:49;;;;;;;12.88;3.08;;;22.00;39.40;;;;;;5040090;28;20058;-67
2021/04/22 11:28:16;;;;;;;9.02;2.72;;;22.00;40.20;;;;;;5042646;28;20141;-67
2021/04/22 11:30:44;;;;;;;14.75;3.65;;;22.60;39.80;;;;;;5043381;28;20799;-68
2021/04/22 11:33:12;;;;;;;11.80;3.05;;;22.50;38.00;;;;;;5048350;28;20070;-68
2021/04/22 11:35:39;;;;;;;10.48;2.67;;;22.20;39.90;;;;;;5053691;28;20441;-67
2021/04/22 11:38:09;;;;;;;9.52;3.15;;;22.40;38.00;;;;;;5051499;28;20091;-68
2021/04/22 11:40:39;;;;;;;13.02;3.28;;;22.70;38.40;;;;;;5052661;28;20067;-67
2021/04/22 11:43:18;;;;;;;15.57;3.08;;;22.40;39.10;;;;;;5053702;28;20685;-66
2021/04/22 11:45:51;;;;;;;6.82;2.75;;;22.60;38.90;;;;;;5055147;28;20085;-67
2021/04/22 11:48:19;;;;;;;9.35;3.17;;;22.80;38.20;;;;;;5053682;28;20114;-66
2021/04/22 11:50:48;;;;;;;7.63;2.10;;;22.70;36.60;;;;;;5053500;28;20044;-66
2021/04/22 11:53:15;;;;;;;8.23;2.47;;;23.20;36.90;;;;;;5050927;28;20059;-67
2021/04/22 11:55:47;;;;;;;9.60;3.47;;;23.20;37.00;;;;;;5051932;28;20052;-67
2021/04/22 11:58:17;;;;;;;11.23;2.80;;;23.70;37.60;;;;;;5049156;28;20492;-67
2021/04/22 12:00:45;;;;;;;8.90;3.40;;;23.70;35.70;;;;;;5051694;28;20331;-67
2021/04/22 12:03:13;;;;;;;15.15;3.50;;;22.50;39.10;;;;;;5051665;28;20875;-69
2021/04/22 12:05:41;;;;;;;13.55;3.28;;;23.00;41.30;;;;;;5053629;28;20234;-67
2021/04/22 12:08:10;;;;;;;8.98;3.58;;;22.80;40.60;;;;;;5049745;28;20055;-67
2021/04/22 12:10:39;;;;;;;6.18;2.50;;;22.90;39.50;;;;;;5052465;28;20603;-66
2021/04/22 12:13:08;;;;;;;6.40;2.55;;;23.20;36.50;;;;;;5051250;28;20048;-67
2021/04/22 12:15:37;;;;;;;19.15;3.45;;;23.80;36.60;;;;;;5054487;28;20052;-68
2021/04/22 12:18:04;;;;;;;8.13;3.17;;;24.30;37.00;;;;;;5052997;28;20079;-67
2021/04/22 12:20:31;;;;;;;8.23;2.55;;;24.10;36.20;;;;;;5052814;28;20055;-66
2021/04/22 12:22:58;;;;;;;10.38;2.58;;;24.70;37.00;;;;;;5054296;28;20126;-66
2021/04/22 12:25:26;;;;;;;6.40;2.15;;;24.10;36.90;;;;;;5052043;28;20048;-66
2021/04/22 12:27:56;;;;;;;8.82;3.20;;;23.70;37.70;;;;;;5051413;28;20044;-66
2021/04/22 12:30:31;;;;;;;9.98;3.20;;;22.90;39.10;;;;;;5047775;28;20056;-66
2021/04/22 12:33:07;;;;;;;9.70;2.78;;;23.30;39.00;;;;;;5040771;28;20044;-66
2021/04/22 12:35:34;;;;;;;12.43;3.15;;;23.30;37.60;;;;;;5046070;28;20087;-69
2021/04/22 12:38:14;;;;;;;11.13;3.30;;;23.40;36.60;;;;;;5048855;28;20086;-68
2021/04/22 12:40:41;;;;;;;9.05;3.10;;;23.20;37.90;;;;;;5046906;28;21274;-68
2021/04/22 12:43:08;;;;;;;7.80;2.80;;;23.00;38.80;;;;;;5046514;28;20083;-68